sensor_id;sensor_type;location;lat;lon;timestamp;temperature;humidity
31003;DHT22;23051;-6.372;106.786;2023-08-21T00:01:35;27.10;70.60
31003;DHT22;23051;-6.372;106.786;2023-08-21T00:05:40;27.20;70.60
31003;DHT22;23051;-6.372;106.786;2023-08-21T00:07:41;27.20;70.50
31003;DHT22;23051;-6.372;106.786;2023-08-21T00:09:42;27.30;70.40
31003;DHT22;23051;-6.372;106.786;2023-08-21T00:11:46;27.30;70.40
31003;DHT22;23051;-6.372;106.786;2023-08-21T00:13:52;27.30;70.40
31003;DHT22;23051;-6.372;106.786;2023-08-21T00:16:09;27.30;70.30
31003;DHT22;23051;-6.372;106.786;2023-08-21T00:18:24;27.40;70.30
31003;DHT22;23051;-6.372;106.786;2023-08-21T00:20:34;27.40;70.10
31003;DHT22;23051;-6.372;106.786;2023-08-21T00:24:52;27.50;70.00
31003;DHT22;23051;-6.372;106.786;2023-08-21T00:27:11;27.50;69.90
31003;DHT22;23051;-6.372;106.786;2023-08-21T00:29:14;27.50;69.80
31003;DHT22;23051;-6.372;106.786;2023-08-21T00:31:18;27.60;69.80
31003;DHT22;23051;-6.372;106.786;2023-08-21T00:33:23;27.60;69.60
31003;DHT22;23051;-6.372;106.786;2023-08-21T00:35:24;27.70;69.60
31003;DHT22;23051;-6.372;106.786;2023-08-21T00:37:25;27.70;69.60
31003;DHT22;23051;-6.372;106.786;2023-08-21T00:39:30;27.70;69.50
31003;DHT22;23051;-6.372;106.786;2023-08-21T00:41:31;27.80;69.50
31003;DHT22;23051;-6.372;106.786;2023-08-21T00:43:34;27.80;69.40
31003;DHT22;23051;-6.372;106.786;2023-08-21T00:45:36;27.80;69.30
31003;DHT22;23051;-6.372;106.786;2023-08-21T00:47:41;27.80;69.30
31003;DHT22;23051;-6.372;106.786;2023-08-21T00:49:42;27.90;69.30
31003;DHT22;23051;-6.372;106.786;2023-08-21T00:51:44;27.90;69.20
31003;DHT22;23051;-6.372;106.786;2023-08-21T00:53:45;27.90;69.10
31003;DHT22;23051;-6.372;106.786;2023-08-21T00:55:46;28.00;69.10
31003;DHT22;23051;-6.372;106.786;2023-08-21T00:57:48;28.00;69.00
31003;DHT22;23051;-6.372;106.786;2023-08-21T00:59:49;28.00;69.00
31003;DHT22;23051;-6.372;106.786;2023-08-21T01:02:02;28.10;69.00
31003;DHT22;23051;-6.372;106.786;2023-08-21T01:04:12;28.10;68.80
31003;DHT22;23051;-6.372;106.786;2023-08-21T01:06:19;28.20;68.80
31003;DHT22;23051;-6.372;106.786;2023-08-21T01:17:46;28.40;68.40
31003;DHT22;23051;-6.372;106.786;2023-08-21T01:19:54;28.40;68.30
31003;DHT22;23051;-6.372;106.786;2023-08-21T01:21:59;28.50;68.30
31003;DHT22;23051;-6.372;106.786;2023-08-21T01:26:07;28.50;68.10
31003;DHT22;23051;-6.372;106.786;2023-08-21T01:28:08;28.60;68.20
31003;DHT22;23051;-6.372;106.786;2023-08-21T01:30:09;28.60;68.10
31003;DHT22;23051;-6.372;106.786;2023-08-21T01:32:24;28.60;68.00
31003;DHT22;23051;-6.372;106.786;2023-08-21T01:34:28;28.70;68.00
31003;DHT22;23051;-6.372;106.786;2023-08-21T01:36:31;28.70;67.80
31003;DHT22;23051;-6.372;106.786;2023-08-21T01:38:33;28.80;67.70
31003;DHT22;23051;-6.372;106.786;2023-08-21T01:40:48;28.80;67.70
31003;DHT22;23051;-6.372;106.786;2023-08-21T01:42:50;28.90;67.70
31003;DHT22;23051;-6.372;106.786;2023-08-21T01:44:51;28.90;67.50
31003;DHT22;23051;-6.372;106.786;2023-08-21T01:46:53;29.00;67.50
31003;DHT22;23051;-6.372;106.786;2023-08-21T01:48:57;29.00;67.50
31003;DHT22;23051;-6.372;106.786;2023-08-21T01:51:00;29.00;67.40
31003;DHT22;23051;-6.372;106.786;2023-08-21T01:53:04;29.10;67.50
31003;DHT22;23051;-6.372;106.786;2023-08-21T01:55:10;29.10;67.30
31003;DHT22;23051;-6.372;106.786;2023-08-21T01:59:34;29.20;67.20
31003;DHT22;23051;-6.372;106.786;2023-08-21T02:01:35;29.30;67.10
31003;DHT22;23051;-6.372;106.786;2023-08-21T02:03:36;29.30;67.00
31003;DHT22;23051;-6.372;106.786;2023-08-21T02:05:38;29.40;67.00
31003;DHT22;23051;-6.372;106.786;2023-08-21T02:07:40;29.40;66.90
31003;DHT22;23051;-6.372;106.786;2023-08-21T02:09:41;29.50;66.90
31003;DHT22;23051;-6.372;106.786;2023-08-21T02:11:42;29.50;66.70
31003;DHT22;23051;-6.372;106.786;2023-08-21T02:13:44;29.50;66.60
31003;DHT22;23051;-6.372;106.786;2023-08-21T02:15:44;29.60;66.70
31003;DHT22;23051;-6.372;106.786;2023-08-21T02:17:46;29.60;66.70
31003;DHT22;23051;-6.372;106.786;2023-08-21T02:19:47;29.70;66.70
31003;DHT22;23051;-6.372;106.786;2023-08-21T02:21:50;29.70;66.60
31003;DHT22;23051;-6.372;106.786;2023-08-21T02:23:53;29.70;66.60
31003;DHT22;23051;-6.372;106.786;2023-08-21T02:25:54;29.70;66.60
31003;DHT22;23051;-6.372;106.786;2023-08-21T02:27:55;29.80;66.60
31003;DHT22;23051;-6.372;106.786;2023-08-21T02:29:56;29.80;66.60
31003;DHT22;23051;-6.372;106.786;2023-08-21T02:31:58;29.80;66.50
31003;DHT22;23051;-6.372;106.786;2023-08-21T02:33:59;29.80;66.50
31003;DHT22;23051;-6.372;106.786;2023-08-21T02:36:00;29.90;66.40
31003;DHT22;23051;-6.372;106.786;2023-08-21T02:38:03;29.90;66.40
31003;DHT22;23051;-6.372;106.786;2023-08-21T02:40:05;30.00;66.20
31003;DHT22;23051;-6.372;106.786;2023-08-21T02:42:14;30.10;66.10
31003;DHT22;23051;-6.372;106.786;2023-08-21T02:44:18;30.20;66.00
31003;DHT22;23051;-6.372;106.786;2023-08-21T02:46:19;30.30;65.90
31003;DHT22;23051;-6.372;106.786;2023-08-21T02:48:20;30.30;65.80
31003;DHT22;23051;-6.372;106.786;2023-08-21T02:50:22;30.40;65.70
31003;DHT22;23051;-6.372;106.786;2023-08-21T02:52:23;30.50;65.80
31003;DHT22;23051;-6.372;106.786;2023-08-21T02:54:24;30.50;65.50
31003;DHT22;23051;-6.372;106.786;2023-08-21T02:56:25;30.50;65.50
31003;DHT22;23051;-6.372;106.786;2023-08-21T02:58:26;30.50;65.50
31003;DHT22;23051;-6.372;106.786;2023-08-21T03:00:28;30.50;65.50
31003;DHT22;23051;-6.372;106.786;2023-08-21T03:02:29;30.50;65.60
31003;DHT22;23051;-6.372;106.786;2023-08-21T03:04:30;30.40;65.70
31003;DHT22;23051;-6.372;106.786;2023-08-21T03:06:39;30.40;65.70
31003;DHT22;23051;-6.372;106.786;2023-08-21T03:08:44;30.50;65.80
31003;DHT22;23051;-6.372;106.786;2023-08-21T03:10:45;30.50;65.70
31003;DHT22;23051;-6.372;106.786;2023-08-21T03:12:46;30.50;65.70
31003;DHT22;23051;-6.372;106.786;2023-08-21T03:14:48;30.60;65.70
31003;DHT22;23051;-6.372;106.786;2023-08-21T03:16:49;30.70;65.50
31003;DHT22;23051;-6.372;106.786;2023-08-21T03:20:54;30.90;65.20
31003;DHT22;23051;-6.372;106.786;2023-08-21T03:22:55;31.00;65.00
31003;DHT22;23051;-6.372;106.786;2023-08-21T03:24:58;31.10;64.90
31003;DHT22;23051;-6.372;106.786;2023-08-21T03:26:59;31.20;64.70
31003;DHT22;23051;-6.372;106.786;2023-08-21T03:29:01;31.30;64.60
31003;DHT22;23051;-6.372;106.786;2023-08-21T03:31:02;31.30;64.50
31003;DHT22;23051;-6.372;106.786;2023-08-21T03:33:09;31.40;64.50
31003;DHT22;23051;-6.372;106.786;2023-08-21T03:35:10;31.40;64.50
31003;DHT22;23051;-6.372;106.786;2023-08-21T03:37:11;31.30;64.50
31003;DHT22;23051;-6.372;106.786;2023-08-21T03:39:13;31.30;64.70
31003;DHT22;23051;-6.372;106.786;2023-08-21T03:41:14;31.30;64.60
31003;DHT22;23051;-6.372;106.786;2023-08-21T03:43:15;31.30;64.70
31003;DHT22;23051;-6.372;106.786;2023-08-21T03:45:19;31.30;64.60
31003;DHT22;23051;-6.372;106.786;2023-08-21T03:47:24;31.40;64.50
31003;DHT22;23051;-6.372;106.786;2023-08-21T03:49:25;31.50;64.30
31003;DHT22;23051;-6.372;106.786;2023-08-21T03:51:26;31.60;64.30
31003;DHT22;23051;-6.372;106.786;2023-08-21T03:55:55;31.70;64.20
31003;DHT22;23051;-6.372;106.786;2023-08-21T03:57:56;31.60;64.30
31003;DHT22;23051;-6.372;106.786;2023-08-21T03:59:59;31.60;64.50
31003;DHT22;23051;-6.372;106.786;2023-08-21T04:02:04;31.50;64.60
31003;DHT22;23051;-6.372;106.786;2023-08-21T04:04:05;31.50;64.70
31003;DHT22;23051;-6.372;106.786;2023-08-21T04:06:06;31.40;64.70
31003;DHT22;23051;-6.372;106.786;2023-08-21T04:08:10;31.40;64.80
31003;DHT22;23051;-6.372;106.786;2023-08-21T04:10:14;31.40;64.90
31003;DHT22;23051;-6.372;106.786;2023-08-21T04:12:20;31.40;64.90
31003;DHT22;23051;-6.372;106.786;2023-08-21T04:17:05;31.60;64.80
31003;DHT22;23051;-6.372;106.786;2023-08-21T04:19:15;31.60;64.70
31003;DHT22;23051;-6.372;106.786;2023-08-21T04:21:18;31.70;64.50
31003;DHT22;23051;-6.372;106.786;2023-08-21T04:23:19;31.70;64.40
31003;DHT22;23051;-6.372;106.786;2023-08-21T04:27:27;31.90;64.10
31003;DHT22;23051;-6.372;106.786;2023-08-21T04:29:28;32.00;63.90
31003;DHT22;23051;-6.372;106.786;2023-08-21T04:31:29;32.10;63.80
31003;DHT22;23051;-6.372;106.786;2023-08-21T04:33:31;32.10;63.70
31003;DHT22;23051;-6.372;106.786;2023-08-21T04:35:36;32.20;63.60
31003;DHT22;23051;-6.372;106.786;2023-08-21T04:37:42;32.30;63.50
31003;DHT22;23051;-6.372;106.786;2023-08-21T04:39:44;32.30;63.40
31003;DHT22;23051;-6.372;106.786;2023-08-21T04:41:46;32.30;63.40
31003;DHT22;23051;-6.372;106.786;2023-08-21T04:43:50;32.40;63.40
31003;DHT22;23051;-6.372;106.786;2023-08-21T04:45:51;32.40;63.30
31003;DHT22;23051;-6.372;106.786;2023-08-21T04:47:54;32.40;63.30
31003;DHT22;23051;-6.372;106.786;2023-08-21T04:49:55;32.50;63.30
31003;DHT22;23051;-6.372;106.786;2023-08-21T04:51:56;32.50;63.20
31003;DHT22;23051;-6.372;106.786;2023-08-21T04:53:58;32.60;63.10
31003;DHT22;23051;-6.372;106.786;2023-08-21T04:56:00;32.70;63.00
31003;DHT22;23051;-6.372;106.786;2023-08-21T04:58:04;32.80;62.80
31003;DHT22;23051;-6.372;106.786;2023-08-21T05:00:15;32.90;62.60
31003;DHT22;23051;-6.372;106.786;2023-08-21T05:02:20;33.00;62.50
31003;DHT22;23051;-6.372;106.786;2023-08-21T05:04:21;33.10;62.30
31003;DHT22;23051;-6.372;106.786;2023-08-21T05:06:22;33.10;62.20
31003;DHT22;23051;-6.372;106.786;2023-08-21T05:08:24;33.10;62.30
31003;DHT22;23051;-6.372;106.786;2023-08-21T05:10:29;33.10;62.40
31003;DHT22;23051;-6.372;106.786;2023-08-21T05:12:30;33.00;62.50
31003;DHT22;23051;-6.372;106.786;2023-08-21T05:14:31;33.00;62.70
31003;DHT22;23051;-6.372;106.786;2023-08-21T05:16:35;32.90;62.80
31003;DHT22;23051;-6.372;106.786;2023-08-21T05:18:41;32.90;62.90
31003;DHT22;23051;-6.372;106.786;2023-08-21T05:20:42;32.90;62.90
31003;DHT22;23051;-6.372;106.786;2023-08-21T05:22:49;32.90;62.90
31003;DHT22;23051;-6.372;106.786;2023-08-21T05:24:50;33.00;63.00
31003;DHT22;23051;-6.372;106.786;2023-08-21T05:26:51;33.10;62.90
31003;DHT22;23051;-6.372;106.786;2023-08-21T05:28:52;33.10;62.70
31003;DHT22;23051;-6.372;106.786;2023-08-21T05:30:57;33.20;62.70
31003;DHT22;23051;-6.372;106.786;2023-08-21T05:32:59;33.20;62.60
31003;DHT22;23051;-6.372;106.786;2023-08-21T05:35:00;33.30;62.60
31003;DHT22;23051;-6.372;106.786;2023-08-21T05:37:01;33.30;62.50
31003;DHT22;23051;-6.372;106.786;2023-08-21T05:39:04;33.40;62.30
31003;DHT22;23051;-6.372;106.786;2023-08-21T05:41:06;33.60;62.00
31003;DHT22;23051;-6.372;106.786;2023-08-21T05:43:08;33.70;61.70
31003;DHT22;23051;-6.372;106.786;2023-08-21T05:45:09;33.90;61.50
31003;DHT22;23051;-6.372;106.786;2023-08-21T05:47:10;34.10;61.20
31003;DHT22;23051;-6.372;106.786;2023-08-21T05:49:11;34.20;61.00
31003;DHT22;23051;-6.372;106.786;2023-08-21T05:51:12;34.20;60.90
31003;DHT22;23051;-6.372;106.786;2023-08-21T05:53:14;34.20;61.00
31003;DHT22;23051;-6.372;106.786;2023-08-21T05:55:15;34.20;61.10
31003;DHT22;23051;-6.372;106.786;2023-08-21T05:57:21;34.20;61.20
31003;DHT22;23051;-6.372;106.786;2023-08-21T06:01:27;34.30;61.00
31003;DHT22;23051;-6.372;106.786;2023-08-21T06:03:28;34.40;60.90
31003;DHT22;23051;-6.372;106.786;2023-08-21T06:05:29;34.40;60.80
31003;DHT22;23051;-6.372;106.786;2023-08-21T06:07:32;34.40;60.80
31003;DHT22;23051;-6.372;106.786;2023-08-21T06:09:33;34.40;60.80
31003;DHT22;23051;-6.372;106.786;2023-08-21T06:11:34;34.40;60.90
31003;DHT22;23051;-6.372;106.786;2023-08-21T06:13:35;34.50;60.80
31003;DHT22;23051;-6.372;106.786;2023-08-21T06:15:37;34.60;60.70
31003;DHT22;23051;-6.372;106.786;2023-08-21T06:17:38;34.70;60.60
31003;DHT22;23051;-6.372;106.786;2023-08-21T06:19:45;34.70;60.60
31003;DHT22;23051;-6.372;106.786;2023-08-21T06:21:47;34.70;60.60
31003;DHT22;23051;-6.372;106.786;2023-08-21T06:23:50;34.60;60.60
31003;DHT22;23051;-6.372;106.786;2023-08-21T06:25:51;34.70;60.80
31003;DHT22;23051;-6.372;106.786;2023-08-21T06:27:53;34.60;60.80
31003;DHT22;23051;-6.372;106.786;2023-08-21T06:29:56;34.70;60.80
31003;DHT22;23051;-6.372;106.786;2023-08-21T06:31:57;34.60;60.80
31003;DHT22;23051;-6.372;106.786;2023-08-21T06:33:58;34.60;60.80
31003;DHT22;23051;-6.372;106.786;2023-08-21T06:36:00;34.60;60.90
31003;DHT22;23051;-6.372;106.786;2023-08-21T06:38:03;34.50;61.00
31003;DHT22;23051;-6.372;106.786;2023-08-21T06:40:04;34.50;61.30
31003;DHT22;23051;-6.372;106.786;2023-08-21T06:42:06;34.40;61.40
31003;DHT22;23051;-6.372;106.786;2023-08-21T06:44:07;34.40;61.40
31003;DHT22;23051;-6.372;106.786;2023-08-21T06:46:08;34.60;61.30
31003;DHT22;23051;-6.372;106.786;2023-08-21T06:48:11;34.70;61.00
31003;DHT22;23051;-6.372;106.786;2023-08-21T06:50:12;34.70;60.90
31003;DHT22;23051;-6.372;106.786;2023-08-21T06:52:14;34.70;60.90
31003;DHT22;23051;-6.372;106.786;2023-08-21T06:54:15;34.90;60.70
31003;DHT22;23051;-6.372;106.786;2023-08-21T06:56:19;35.00;60.50
31003;DHT22;23051;-6.372;106.786;2023-08-21T06:58:20;35.10;60.40
31003;DHT22;23051;-6.372;106.786;2023-08-21T07:00:26;35.00;60.40
31003;DHT22;23051;-6.372;106.786;2023-08-21T07:02:27;35.00;60.50
31003;DHT22;23051;-6.372;106.786;2023-08-21T07:04:29;34.90;61.60
31003;DHT22;23051;-6.372;106.786;2023-08-21T07:06:30;34.90;60.80
31003;DHT22;23051;-6.372;106.786;2023-08-21T07:08:31;34.90;60.80
31003;DHT22;23051;-6.372;106.786;2023-08-21T07:10:36;34.90;60.80
31003;DHT22;23051;-6.372;106.786;2023-08-21T07:12:37;34.90;60.80
31003;DHT22;23051;-6.372;106.786;2023-08-21T07:14:39;34.90;61.60
31003;DHT22;23051;-6.372;106.786;2023-08-21T07:16:40;35.00;60.80
31003;DHT22;23051;-6.372;106.786;2023-08-21T07:18:41;35.00;60.50
31003;DHT22;23051;-6.372;106.786;2023-08-21T07:20:42;35.20;60.40
31003;DHT22;23051;-6.372;106.786;2023-08-21T07:22:43;35.30;60.10
31003;DHT22;23051;-6.372;106.786;2023-08-21T07:24:44;35.50;59.90
31003;DHT22;23051;-6.372;106.786;2023-08-21T07:26:45;35.50;59.70
31003;DHT22;23051;-6.372;106.786;2023-08-21T07:28:49;35.50;59.70
31003;DHT22;23051;-6.372;106.786;2023-08-21T07:32:54;35.70;59.70
31003;DHT22;23051;-6.372;106.786;2023-08-21T07:34:56;35.80;59.60
31003;DHT22;23051;-6.372;106.786;2023-08-21T07:36:57;35.90;59.40
31003;DHT22;23051;-6.372;106.786;2023-08-21T07:38:58;35.90;59.20
31003;DHT22;23051;-6.372;106.786;2023-08-21T07:41:04;36.00;59.10
31003;DHT22;23051;-6.372;106.786;2023-08-21T07:43:05;36.00;59.20
31003;DHT22;23051;-6.372;106.786;2023-08-21T07:45:06;35.90;59.40
31003;DHT22;23051;-6.372;106.786;2023-08-21T07:47:08;35.80;59.50
31003;DHT22;23051;-6.372;106.786;2023-08-21T07:49:09;35.70;59.80
31003;DHT22;23051;-6.372;106.786;2023-08-21T07:51:10;35.60;60.00
31003;DHT22;23051;-6.372;106.786;2023-08-21T07:53:11;35.50;60.10
31003;DHT22;23051;-6.372;106.786;2023-08-21T07:55:12;35.50;60.20
31003;DHT22;23051;-6.372;106.786;2023-08-21T07:57:13;35.50;60.20
31003;DHT22;23051;-6.372;106.786;2023-08-21T07:59:15;35.40;60.30
31003;DHT22;23051;-6.372;106.786;2023-08-21T08:01:16;35.40;60.30
31003;DHT22;23051;-6.372;106.786;2023-08-21T08:03:17;35.50;60.20
31003;DHT22;23051;-6.372;106.786;2023-08-21T08:05:18;35.60;60.10
31003;DHT22;23051;-6.372;106.786;2023-08-21T08:07:19;35.60;60.10
31003;DHT22;23051;-6.372;106.786;2023-08-21T08:09:20;35.50;60.10
31003;DHT22;23051;-6.372;106.786;2023-08-21T08:11:21;35.50;60.30
31003;DHT22;23051;-6.372;106.786;2023-08-21T08:13:23;35.40;60.30
31003;DHT22;23051;-6.372;106.786;2023-08-21T08:15:24;35.30;60.40
31003;DHT22;23051;-6.372;106.786;2023-08-21T08:17:28;35.30;60.50
31003;DHT22;23051;-6.372;106.786;2023-08-21T08:19:29;35.30;60.50
31003;DHT22;23051;-6.372;106.786;2023-08-21T08:21:30;35.30;60.60
31003;DHT22;23051;-6.372;106.786;2023-08-21T08:23:31;35.20;60.60
31003;DHT22;23051;-6.372;106.786;2023-08-21T08:25:32;35.20;60.70
31003;DHT22;23051;-6.372;106.786;2023-08-21T08:27:33;35.20;60.80
31003;DHT22;23051;-6.372;106.786;2023-08-21T08:29:37;35.20;60.90
31003;DHT22;23051;-6.372;106.786;2023-08-21T08:31:38;35.10;60.90
31003;DHT22;23051;-6.372;106.786;2023-08-21T08:33:40;35.10;61.00
31003;DHT22;23051;-6.372;106.786;2023-08-21T08:35:41;34.90;61.20
31003;DHT22;23051;-6.372;106.786;2023-08-21T08:37:42;34.80;61.40
31003;DHT22;23051;-6.372;106.786;2023-08-21T08:39:45;34.80;61.60
31003;DHT22;23051;-6.372;106.786;2023-08-21T08:41:51;34.70;61.70
31003;DHT22;23051;-6.372;106.786;2023-08-21T08:43:56;34.70;61.70
31003;DHT22;23051;-6.372;106.786;2023-08-21T08:46:01;34.70;61.70
31003;DHT22;23051;-6.372;106.786;2023-08-21T08:48:03;34.70;61.70
31003;DHT22;23051;-6.372;106.786;2023-08-21T08:50:07;34.80;61.60
31003;DHT22;23051;-6.372;106.786;2023-08-21T08:52:12;34.80;61.50
31003;DHT22;23051;-6.372;106.786;2023-08-21T08:54:16;34.80;61.40
31003;DHT22;23051;-6.372;106.786;2023-08-21T08:56:20;34.70;61.50
31003;DHT22;23051;-6.372;106.786;2023-08-21T08:58:25;34.60;61.90
31003;DHT22;23051;-6.372;106.786;2023-08-21T09:00:26;34.50;62.10
31003;DHT22;23051;-6.372;106.786;2023-08-21T09:02:27;34.50;63.00
31003;DHT22;23051;-6.372;106.786;2023-08-21T09:04:31;34.40;62.20
31003;DHT22;23051;-6.372;106.786;2023-08-21T09:08:38;34.30;62.50
31003;DHT22;23051;-6.372;106.786;2023-08-21T09:10:41;34.30;62.50
31003;DHT22;23051;-6.372;106.786;2023-08-21T09:12:44;34.20;62.60
31003;DHT22;23051;-6.372;106.786;2023-08-21T09:14:47;34.20;62.60
31003;DHT22;23051;-6.372;106.786;2023-08-21T09:19:04;33.90;63.10
31003;DHT22;23051;-6.372;106.786;2023-08-21T09:21:08;33.80;63.40
31003;DHT22;23051;-6.372;106.786;2023-08-21T09:25:13;33.60;63.90
31003;DHT22;23051;-6.372;106.786;2023-08-21T09:27:16;33.50;64.00
31003;DHT22;23051;-6.372;106.786;2023-08-21T09:29:18;33.50;63.90
31003;DHT22;23051;-6.372;106.786;2023-08-21T09:33:25;33.60;63.70
31003;DHT22;23051;-6.372;106.786;2023-08-21T09:35:27;33.60;63.60
31003;DHT22;23051;-6.372;106.786;2023-08-21T09:37:28;33.50;63.60
31003;DHT22;23051;-6.372;106.786;2023-08-21T09:39:33;33.50;63.90
31003;DHT22;23051;-6.372;106.786;2023-08-21T09:41:39;33.40;64.00
31003;DHT22;23051;-6.372;106.786;2023-08-21T09:43:41;33.30;64.20
31003;DHT22;23051;-6.372;106.786;2023-08-21T09:45:46;33.20;64.30
31003;DHT22;23051;-6.372;106.786;2023-08-21T09:47:47;33.20;64.30
31003;DHT22;23051;-6.372;106.786;2023-08-21T09:49:59;33.20;64.40
31003;DHT22;23051;-6.372;106.786;2023-08-21T09:52:00;33.10;64.40
31003;DHT22;23051;-6.372;106.786;2023-08-21T09:54:04;33.10;64.70
31003;DHT22;23051;-6.372;106.786;2023-08-21T09:56:07;33.00;64.70
31003;DHT22;23051;-6.372;106.786;2023-08-21T09:58:09;33.00;64.70
31003;DHT22;23051;-6.372;106.786;2023-08-21T10:00:10;32.90;64.70
31003;DHT22;23051;-6.372;106.786;2023-08-21T10:02:14;33.00;64.70
31003;DHT22;23051;-6.372;106.786;2023-08-21T10:04:16;32.90;64.60
31003;DHT22;23051;-6.372;106.786;2023-08-21T10:06:18;32.90;64.70
31003;DHT22;23051;-6.372;106.786;2023-08-21T10:08:23;32.80;64.60
31003;DHT22;23051;-6.372;106.786;2023-08-21T10:10:25;32.80;64.70
31003;DHT22;23051;-6.372;106.786;2023-08-21T10:12:26;32.80;64.90
31003;DHT22;23051;-6.372;106.786;2023-08-21T10:14:27;32.70;64.90
31003;DHT22;23051;-6.372;106.786;2023-08-21T10:16:28;32.60;65.00
31003;DHT22;23051;-6.372;106.786;2023-08-21T10:18:31;32.60;65.20
31003;DHT22;23051;-6.372;106.786;2023-08-21T10:20:33;32.50;65.30
31003;DHT22;23051;-6.372;106.786;2023-08-21T10:24:38;32.50;65.30
31003;DHT22;23051;-6.372;106.786;2023-08-21T10:26:39;32.40;65.30
31003;DHT22;23051;-6.372;106.786;2023-08-21T10:28:41;32.40;65.40
31003;DHT22;23051;-6.372;106.786;2023-08-21T10:30:43;32.40;65.40
31003;DHT22;23051;-6.372;106.786;2023-08-21T10:32:47;32.30;65.40
31003;DHT22;23051;-6.372;106.786;2023-08-21T10:35:03;32.30;65.40
31003;DHT22;23051;-6.372;106.786;2023-08-21T10:37:12;32.30;65.50
31003;DHT22;23051;-6.372;106.786;2023-08-21T10:41:19;32.30;65.60
31003;DHT22;23051;-6.372;106.786;2023-08-21T10:45:33;32.10;65.50
31003;DHT22;23051;-6.372;106.786;2023-08-21T10:47:56;32.10;65.60
31003;DHT22;23051;-6.372;106.786;2023-08-21T10:50:01;32.10;65.60
31003;DHT22;23051;-6.372;106.786;2023-08-21T10:52:02;32.10;65.70
31003;DHT22;23051;-6.372;106.786;2023-08-21T10:54:20;32.10;65.60
31003;DHT22;23051;-6.372;106.786;2023-08-21T10:56:25;32.10;65.60
31003;DHT22;23051;-6.372;106.786;2023-08-21T10:58:26;32.10;65.70
31003;DHT22;23051;-6.372;106.786;2023-08-21T11:00:27;32.00;65.60
31003;DHT22;23051;-6.372;106.786;2023-08-21T11:10:06;32.40;64.90
31003;DHT22;23051;-6.372;106.786;2023-08-21T11:12:09;32.70;64.20
31003;DHT22;23051;-6.372;106.786;2023-08-21T11:14:16;32.80;63.70
31003;DHT22;23051;-6.372;106.786;2023-08-21T11:16:26;33.10;63.50
31003;DHT22;23051;-6.372;106.786;2023-08-21T11:18:29;33.20;63.00
31003;DHT22;23051;-6.372;106.786;2023-08-21T11:20:34;33.30;62.60
31003;DHT22;23051;-6.372;106.786;2023-08-21T11:22:36;33.50;62.40
31003;DHT22;23051;-6.372;106.786;2023-08-21T11:24:48;33.50;62.20
31003;DHT22;23051;-6.372;106.786;2023-08-21T11:27:13;33.60;62.00
31003;DHT22;23051;-6.372;106.786;2023-08-21T11:29:20;33.70;61.90
31003;DHT22;23051;-6.372;106.786;2023-08-21T11:31:23;33.80;61.80
31003;DHT22;23051;-6.372;106.786;2023-08-21T11:36:12;33.80;61.60
31003;DHT22;23051;-6.372;106.786;2023-08-21T11:40:50;33.80;61.50
31003;DHT22;23051;-6.372;106.786;2023-08-21T11:42:59;33.80;61.60
31003;DHT22;23051;-6.372;106.786;2023-08-21T11:45:01;33.80;61.60
31003;DHT22;23051;-6.372;106.786;2023-08-21T11:47:07;33.80;61.60
31003;DHT22;23051;-6.372;106.786;2023-08-21T11:49:25;33.80;62.30
31003;DHT22;23051;-6.372;106.786;2023-08-21T11:51:38;33.90;61.50
31003;DHT22;23051;-6.372;106.786;2023-08-21T11:53:41;33.90;61.50
31003;DHT22;23051;-6.372;106.786;2023-08-21T11:55:46;33.90;61.40
31003;DHT22;23051;-6.372;106.786;2023-08-21T11:57:51;33.90;61.40
31003;DHT22;23051;-6.372;106.786;2023-08-21T11:59:55;33.90;61.50
31003;DHT22;23051;-6.372;106.786;2023-08-21T12:04:24;33.90;61.60
31003;DHT22;23051;-6.372;106.786;2023-08-21T12:06:26;33.90;61.60
31003;DHT22;23051;-6.372;106.786;2023-08-21T12:08:33;33.90;61.50
31003;DHT22;23051;-6.372;106.786;2023-08-21T12:10:34;33.80;61.50
31003;DHT22;23051;-6.372;106.786;2023-08-21T12:12:35;33.80;61.60
31003;DHT22;23051;-6.372;106.786;2023-08-21T12:14:37;33.80;61.70
31003;DHT22;23051;-6.372;106.786;2023-08-21T12:16:44;33.80;61.70
31003;DHT22;23051;-6.372;106.786;2023-08-21T12:18:46;33.70;61.70
31003;DHT22;23051;-6.372;106.786;2023-08-21T12:20:47;33.80;61.70
31003;DHT22;23051;-6.372;106.786;2023-08-21T12:22:51;33.80;61.70
31003;DHT22;23051;-6.372;106.786;2023-08-21T12:24:55;33.80;61.70
31003;DHT22;23051;-6.372;106.786;2023-08-21T12:27:02;33.80;61.60
31003;DHT22;23051;-6.372;106.786;2023-08-21T12:29:08;33.80;61.60
31003;DHT22;23051;-6.372;106.786;2023-08-21T12:31:10;33.80;61.60
31003;DHT22;23051;-6.372;106.786;2023-08-21T12:33:11;33.80;61.50
31003;DHT22;23051;-6.372;106.786;2023-08-21T12:35:13;33.80;61.50
31003;DHT22;23051;-6.372;106.786;2023-08-21T12:37:15;33.80;61.40
31003;DHT22;23051;-6.372;106.786;2023-08-21T12:39:19;33.80;61.40
31003;DHT22;23051;-6.372;106.786;2023-08-21T12:41:20;33.80;61.40
31003;DHT22;23051;-6.372;106.786;2023-08-21T12:43:26;33.80;61.50
31003;DHT22;23051;-6.372;106.786;2023-08-21T12:45:30;33.80;61.60
31003;DHT22;23051;-6.372;106.786;2023-08-21T12:47:31;33.70;61.70
31003;DHT22;23051;-6.372;106.786;2023-08-21T12:49:35;33.60;61.70
31003;DHT22;23051;-6.372;106.786;2023-08-21T12:51:36;33.60;61.80
31003;DHT22;23051;-6.372;106.786;2023-08-21T12:53:38;33.60;61.90
31003;DHT22;23051;-6.372;106.786;2023-08-21T12:55:39;33.50;61.90
31003;DHT22;23051;-6.372;106.786;2023-08-21T12:57:40;33.50;62.00
31003;DHT22;23051;-6.372;106.786;2023-08-21T12:59:41;33.50;62.10
31003;DHT22;23051;-6.372;106.786;2023-08-21T13:01:48;33.50;62.10
31003;DHT22;23051;-6.372;106.786;2023-08-21T13:04:00;33.40;62.10
31003;DHT22;23051;-6.372;106.786;2023-08-21T13:06:01;33.40;62.10
31003;DHT22;23051;-6.372;106.786;2023-08-21T13:08:03;33.30;62.10
31003;DHT22;23051;-6.372;106.786;2023-08-21T13:10:07;33.30;62.20
31003;DHT22;23051;-6.372;106.786;2023-08-21T13:12:16;33.30;62.30
31003;DHT22;23051;-6.372;106.786;2023-08-21T13:14:18;33.30;62.30
31003;DHT22;23051;-6.372;106.786;2023-08-21T13:16:32;33.20;62.40
31003;DHT22;23051;-6.372;106.786;2023-08-21T13:18:33;33.20;62.50
31003;DHT22;23051;-6.372;106.786;2023-08-21T13:20:43;33.10;62.40
31003;DHT22;23051;-6.372;106.786;2023-08-21T13:24:54;33.10;62.60
31003;DHT22;23051;-6.372;106.786;2023-08-21T13:26:56;33.00;62.60
31003;DHT22;23051;-6.372;106.786;2023-08-21T13:30:59;32.90;62.70
31003;DHT22;23051;-6.372;106.786;2023-08-21T13:33:08;32.90;62.80
31003;DHT22;23051;-6.372;106.786;2023-08-21T13:35:30;32.80;63.00
31003;DHT22;23051;-6.372;106.786;2023-08-21T13:37:42;32.60;63.10
31003;DHT22;23051;-6.372;106.786;2023-08-21T13:39:52;32.40;63.50
31003;DHT22;23051;-6.372;106.786;2023-08-21T13:42:04;32.20;63.80